sensor_id;sensor_type;location;lat;lon;timestamp;P1;durP1;ratioP1;P2;durP2;ratioP2
82034;SDS011;71599;49.892;18.914;2023-12-29T00:03:05;31.17;;;19.58;;
82034;SDS011;71599;49.892;18.914;2023-12-29T00:08:07;34.88;;;19.67;;
82034;SDS011;71599;49.892;18.914;2023-12-29T00:13:08;26.50;;;17.38;;
82034;SDS011;71599;49.892;18.914;2023-12-29T00:18:09;31.17;;;17.88;;
82034;SDS011;71599;49.892;18.914;2023-12-29T00:23:12;30.45;;;16.85;;
82034;SDS011;71599;49.892;18.914;2023-12-29T00:28:13;23.80;;;16.48;;
82034;SDS011;71599;49.892;18.914;2023-12-29T00:33:14;25.55;;;15.95;;
82034;SDS011;71599;49.892;18.914;2023-12-29T00:38:17;23.52;;;17.05;;
82034;SDS011;71599;49.892;18.914;2023-12-29T00:43:18;26.13;;;15.55;;
82034;SDS011;71599;49.892;18.914;2023-12-29T00:48:19;22.27;;;14.48;;
82034;SDS011;71599;49.892;18.914;2023-12-29T00:53:21;24.27;;;14.18;;
82034;SDS011;71599;49.892;18.914;2023-12-29T00:58:23;19.00;;;12.02;;
82034;SDS011;71599;49.892;18.914;2023-12-29T01:03:24;17.55;;;10.73;;
82034;SDS011;71599;49.892;18.914;2023-12-29T01:08:27;21.52;;;12.45;;
82034;SDS011;71599;49.892;18.914;2023-12-29T01:13:28;19.95;;;12.32;;
82034;SDS011;71599;49.892;18.914;2023-12-29T01:18:29;18.58;;;10.45;;
82034;SDS011;71599;49.892;18.914;2023-12-29T01:23:31;11.38;;;5.75;;
82034;SDS011;71599;49.892;18.914;2023-12-29T01:28:32;10.07;;;6.47;;
82034;SDS011;71599;49.892;18.914;2023-12-29T01:38:36;9.68;;;4.70;;
82034;SDS011;71599;49.892;18.914;2023-12-29T01:49:13;6.80;;;4.05;;
82034;SDS011;71599;49.892;18.914;2023-12-29T01:54:17;8.48;;;5.20;;
82034;SDS011;71599;49.892;18.914;2023-12-29T01:59:19;5.00;;;3.20;;
82034;SDS011;71599;49.892;18.914;2023-12-29T02:04:21;4.85;;;3.03;;
82034;SDS011;71599;49.892;18.914;2023-12-29T02:09:26;5.93;;;2.90;;
82034;SDS011;71599;49.892;18.914;2023-12-29T02:14:27;3.25;;;2.25;;
82034;SDS011;71599;49.892;18.914;2023-12-29T02:19:36;4.63;;;3.22;;
82034;SDS011;71599;49.892;18.914;2023-12-29T02:24:39;6.38;;;3.42;;
82034;SDS011;71599;49.892;18.914;2023-12-29T02:29:48;4.90;;;2.90;;
82034;SDS011;71599;49.892;18.914;2023-12-29T02:35:00;3.08;;;2.47;;
82034;SDS011;71599;49.892;18.914;2023-12-29T02:40:05;3.83;;;2.45;;
82034;SDS011;71599;49.892;18.914;2023-12-29T02:45:08;4.05;;;2.58;;
82034;SDS011;71599;49.892;18.914;2023-12-29T02:55:12;2.63;;;2.40;;
82034;SDS011;71599;49.892;18.914;2023-12-29T03:00:13;5.13;;;2.40;;
82034;SDS011;71599;49.892;18.914;2023-12-29T03:05:15;3.45;;;2.53;;
82034;SDS011;71599;49.892;18.914;2023-12-29T03:10:17;4.38;;;2.85;;
82034;SDS011;71599;49.892;18.914;2023-12-29T03:15:19;6.85;;;2.95;;
82034;SDS011;71599;49.892;18.914;2023-12-29T03:20:20;4.25;;;2.63;;
82034;SDS011;71599;49.892;18.914;2023-12-29T03:25:22;4.35;;;2.35;;
82034;SDS011;71599;49.892;18.914;2023-12-29T03:30:23;5.05;;;3.13;;
82034;SDS011;71599;49.892;18.914;2023-12-29T03:35:25;3.15;;;2.55;;
82034;SDS011;71599;49.892;18.914;2023-12-29T03:40:27;4.45;;;2.95;;
82034;SDS011;71599;49.892;18.914;2023-12-29T03:45:28;3.83;;;2.25;;
82034;SDS011;71599;49.892;18.914;2023-12-29T03:50:30;3.33;;;2.05;;
82034;SDS011;71599;49.892;18.914;2023-12-29T03:55:32;5.82;;;2.78;;
82034;SDS011;71599;49.892;18.914;2023-12-29T04:00:34;3.33;;;2.65;;
82034;SDS011;71599;49.892;18.914;2023-12-29T04:05:35;3.38;;;2.55;;
82034;SDS011;71599;49.892;18.914;2023-12-29T04:10:37;5.75;;;2.60;;
82034;SDS011;71599;49.892;18.914;2023-12-29T04:15:38;3.65;;;2.15;;
82034;SDS011;71599;49.892;18.914;2023-12-29T04:20:40;5.50;;;2.35;;
82034;SDS011;71599;49.892;18.914;2023-12-29T04:25:42;3.03;;;2.13;;
82034;SDS011;71599;49.892;18.914;2023-12-29T04:30:43;4.20;;;2.95;;
82034;SDS011;71599;49.892;18.914;2023-12-29T04:35:44;5.57;;;2.50;;
82034;SDS011;71599;49.892;18.914;2023-12-29T04:40:46;3.63;;;2.38;;
82034;SDS011;71599;49.892;18.914;2023-12-29T04:45:47;6.28;;;3.35;;
82034;SDS011;71599;49.892;18.914;2023-12-29T04:50:49;3.95;;;2.35;;
82034;SDS011;71599;49.892;18.914;2023-12-29T04:55:51;5.82;;;3.50;;
82034;SDS011;71599;49.892;18.914;2023-12-29T05:00:52;3.60;;;3.00;;
82034;SDS011;71599;49.892;18.914;2023-12-29T05:05:53;4.18;;;2.90;;
82034;SDS011;71599;49.892;18.914;2023-12-29T05:10:56;2.97;;;2.15;;
82034;SDS011;71599;49.892;18.914;2023-12-29T05:15:57;3.15;;;2.13;;
82034;SDS011;71599;49.892;18.914;2023-12-29T05:20:59;3.92;;;2.45;;
82034;SDS011;71599;49.892;18.914;2023-12-29T05:31:03;4.80;;;2.67;;
82034;SDS011;71599;49.892;18.914;2023-12-29T05:36:07;5.85;;;2.97;;
82034;SDS011;71599;49.892;18.914;2023-12-29T05:41:12;3.50;;;2.55;;
82034;SDS011;71599;49.892;18.914;2023-12-29T05:46:14;5.90;;;3.75;;
82034;SDS011;71599;49.892;18.914;2023-12-29T05:56:17;3.45;;;3.17;;
82034;SDS011;71599;49.892;18.914;2023-12-29T06:01:19;4.68;;;3.75;;
82034;SDS011;71599;49.892;18.914;2023-12-29T06:06:20;4.53;;;2.58;;
82034;SDS011;71599;49.892;18.914;2023-12-29T06:16:24;6.82;;;3.53;;
82034;SDS011;71599;49.892;18.914;2023-12-29T06:21:25;5.63;;;2.72;;
82034;SDS011;71599;49.892;18.914;2023-12-29T06:31:29;3.67;;;2.28;;
82034;SDS011;71599;49.892;18.914;2023-12-29T06:36:30;2.42;;;1.90;;
82034;SDS011;71599;49.892;18.914;2023-12-29T06:41:32;2.50;;;2.13;;
82034;SDS011;71599;49.892;18.914;2023-12-29T06:46:34;2.65;;;1.75;;
82034;SDS011;71599;49.892;18.914;2023-12-29T06:51:37;12.30;;;5.90;;
82034;SDS011;71599;49.892;18.914;2023-12-29T07:01:40;7.35;;;3.53;;
82034;SDS011;71599;49.892;18.914;2023-12-29T07:06:42;9.90;;;6.15;;
82034;SDS011;71599;49.892;18.914;2023-12-29T07:11:48;13.90;;;7.43;;
82034;SDS011;71599;49.892;18.914;2023-12-29T07:16:49;9.45;;;4.45;;
82034;SDS011;71599;49.892;18.914;2023-12-29T07:21:50;9.65;;;5.25;;
82034;SDS011;71599;49.892;18.914;2023-12-29T07:26:53;9.05;;;4.90;;
82034;SDS011;71599;49.892;18.914;2023-12-29T07:31:54;7.82;;;4.55;;
82034;SDS011;71599;49.892;18.914;2023-12-29T07:36:55;8.23;;;3.85;;
82034;SDS011;71599;49.892;18.914;2023-12-29T07:41:57;8.05;;;4.93;;
82034;SDS011;71599;49.892;18.914;2023-12-29T07:46:59;5.80;;;2.92;;
82034;SDS011;71599;49.892;18.914;2023-12-29T07:52:00;7.22;;;3.38;;
82034;SDS011;71599;49.892;18.914;2023-12-29T07:57:03;7.60;;;4.50;;
82034;SDS011;71599;49.892;18.914;2023-12-29T08:02:04;9.20;;;4.15;;
82034;SDS011;71599;49.892;18.914;2023-12-29T08:07:05;7.75;;;3.95;;
82034;SDS011;71599;49.892;18.914;2023-12-29T08:12:08;8.15;;;3.78;;
82034;SDS011;71599;49.892;18.914;2023-12-29T08:17:09;8.98;;;5.22;;
82034;SDS011;71599;49.892;18.914;2023-12-29T08:22:10;4.85;;;2.58;;
82034;SDS011;71599;49.892;18.914;2023-12-29T08:27:13;7.35;;;3.15;;
82034;SDS011;71599;49.892;18.914;2023-12-29T08:32:14;6.35;;;3.05;;
82034;SDS011;71599;49.892;18.914;2023-12-29T08:37:15;5.55;;;2.78;;
82034;SDS011;71599;49.892;18.914;2023-12-29T08:42:17;5.35;;;2.75;;
82034;SDS011;71599;49.892;18.914;2023-12-29T08:47:18;6.72;;;4.05;;
82034;SDS011;71599;49.892;18.914;2023-12-29T08:52:20;5.57;;;3.20;;
82034;SDS011;71599;49.892;18.914;2023-12-29T09:02:23;4.90;;;2.72;;
82034;SDS011;71599;49.892;18.914;2023-12-29T09:07:24;3.20;;;2.33;;
82034;SDS011;71599;49.892;18.914;2023-12-29T09:12:26;5.43;;;2.83;;
82034;SDS011;71599;49.892;18.914;2023-12-29T09:17:27;7.70;;;4.25;;
82034;SDS011;71599;49.892;18.914;2023-12-29T09:22:29;6.03;;;2.92;;
82034;SDS011;71599;49.892;18.914;2023-12-29T09:32:32;1.98;;;1.30;;
82034;SDS011;71599;49.892;18.914;2023-12-29T09:37:33;1.83;;;1.42;;
82034;SDS011;71599;49.892;18.914;2023-12-29T09:47:38;1.55;;;1.17;;
82034;SDS011;71599;49.892;18.914;2023-12-29T09:52:40;2.53;;;0.90;;
82034;SDS011;71599;49.892;18.914;2023-12-29T09:57:43;1.60;;;1.20;;
82034;SDS011;71599;49.892;18.914;2023-12-29T10:02:44;2.88;;;1.23;;
82034;SDS011;71599;49.892;18.914;2023-12-29T10:07:46;1.67;;;1.40;;
82034;SDS011;71599;49.892;18.914;2023-12-29T10:12:49;2.47;;;1.83;;
82034;SDS011;71599;49.892;18.914;2023-12-29T10:17:52;3.30;;;1.80;;
82034;SDS011;71599;49.892;18.914;2023-12-29T10:23:02;4.38;;;1.10;;
82034;SDS011;71599;49.892;18.914;2023-12-29T10:28:08;2.20;;;1.27;;
82034;SDS011;71599;49.892;18.914;2023-12-29T10:33:10;2.03;;;1.15;;
82034;SDS011;71599;49.892;18.914;2023-12-29T10:38:11;2.30;;;1.55;;
82034;SDS011;71599;49.892;18.914;2023-12-29T10:43:16;2.47;;;1.25;;
82034;SDS011;71599;49.892;18.914;2023-12-29T10:48:22;2.38;;;1.75;;
82034;SDS011;71599;49.892;18.914;2023-12-29T10:53:23;2.75;;;2.13;;
82034;SDS011;71599;49.892;18.914;2023-12-29T10:58:26;5.05;;;2.38;;
82034;SDS011;71599;49.892;18.914;2023-12-29T11:03:27;2.72;;;1.70;;
82034;SDS011;71599;49.892;18.914;2023-12-29T11:08:29;7.20;;;2.20;;
82034;SDS011;71599;49.892;18.914;2023-12-29T11:13:31;1.65;;;1.13;;
82034;SDS011;71599;49.892;18.914;2023-12-29T11:18:33;2.97;;;1.15;;
82034;SDS011;71599;49.892;18.914;2023-12-29T11:23:35;3.22;;;1.77;;
82034;SDS011;71599;49.892;18.914;2023-12-29T11:28:37;3.45;;;1.60;;
82034;SDS011;71599;49.892;18.914;2023-12-29T11:33:40;2.33;;;1.67;;
82034;SDS011;71599;49.892;18.914;2023-12-29T11:38:48;5.50;;;3.28;;
82034;SDS011;71599;49.892;18.914;2023-12-29T11:44:00;4.93;;;2.65;;
82034;SDS011;71599;49.892;18.914;2023-12-29T11:49:01;5.30;;;2.70;;
82034;SDS011;71599;49.892;18.914;2023-12-29T11:54:02;2.72;;;1.98;;
82034;SDS011;71599;49.892;18.914;2023-12-29T11:59:18;6.80;;;2.97;;
82034;SDS011;71599;49.892;18.914;2023-12-29T12:04:39;3.22;;;2.05;;
82034;SDS011;71599;49.892;18.914;2023-12-29T12:09:40;4.65;;;2.70;;
82034;SDS011;71599;49.892;18.914;2023-12-29T12:14:46;4.95;;;3.45;;
82034;SDS011;71599;49.892;18.914;2023-12-29T12:19:49;3.88;;;2.00;;
82034;SDS011;71599;49.892;18.914;2023-12-29T12:24:50;3.40;;;2.42;;
82034;SDS011;71599;49.892;18.914;2023-12-29T12:29:58;1.55;;;1.30;;
82034;SDS011;71599;49.892;18.914;2023-12-29T12:34:59;3.88;;;2.25;;
82034;SDS011;71599;49.892;18.914;2023-12-29T12:40:00;3.67;;;1.85;;
82034;SDS011;71599;49.892;18.914;2023-12-29T12:45:04;2.35;;;1.65;;
82034;SDS011;71599;49.892;18.914;2023-12-29T12:50:11;4.88;;;1.77;;
82034;SDS011;71599;49.892;18.914;2023-12-29T12:55:13;11.00;;;6.43;;
82034;SDS011;71599;49.892;18.914;2023-12-29T13:00:16;4.53;;;2.10;;
82034;SDS011;71599;49.892;18.914;2023-12-29T13:05:17;2.88;;;1.95;;
82034;SDS011;71599;49.892;18.914;2023-12-29T13:10:19;3.67;;;2.83;;
82034;SDS011;71599;49.892;18.914;2023-12-29T13:15:21;2.15;;;1.92;;
82034;SDS011;71599;49.892;18.914;2023-12-29T13:20:23;7.18;;;2.88;;
82034;SDS011;71599;49.892;18.914;2023-12-29T13:25:24;4.57;;;2.88;;
82034;SDS011;71599;49.892;18.914;2023-12-29T13:30:28;6.68;;;4.43;;
82034;SDS011;71599;49.892;18.914;2023-12-29T13:35:30;8.15;;;3.03;;
82034;SDS011;71599;49.892;18.914;2023-12-29T13:40:38;3.92;;;2.83;;
82034;SDS011;71599;49.892;18.914;2023-12-29T13:45:44;3.45;;;2.22;;
82034;SDS011;71599;49.892;18.914;2023-12-29T13:50:46;2.63;;;2.17;;
82034;SDS011;71599;49.892;18.914;2023-12-29T13:55:48;4.07;;;2.20;;
82034;SDS011;71599;49.892;18.914;2023-12-29T14:00:56;3.70;;;2.50;;
82034;SDS011;71599;49.892;18.914;2023-12-29T14:06:00;6.63;;;3.53;;
82034;SDS011;71599;49.892;18.914;2023-12-29T14:11:06;5.40;;;2.78;;
82034;SDS011;71599;49.892;18.914;2023-12-29T14:16:09;12.38;;;5.90;;
82034;SDS011;71599;49.892;18.914;2023-12-29T14:21:20;9.23;;;4.72;;
82034;SDS011;71599;49.892;18.914;2023-12-29T14:26:21;7.30;;;5.03;;
82034;SDS011;71599;49.892;18.914;2023-12-29T14:31:24;11.07;;;6.47;;
82034;SDS011;71599;49.892;18.914;2023-12-29T14:36:25;6.28;;;4.22;;
82034;SDS011;71599;49.892;18.914;2023-12-29T14:41:26;7.90;;;4.28;;
82034;SDS011;71599;49.892;18.914;2023-12-29T14:51:29;7.55;;;4.43;;
82034;SDS011;71599;49.892;18.914;2023-12-29T14:56:30;6.97;;;3.38;;
82034;SDS011;71599;49.892;18.914;2023-12-29T15:01:33;7.03;;;4.72;;
82034;SDS011;71599;49.892;18.914;2023-12-29T15:06:35;7.43;;;4.30;;
82034;SDS011;71599;49.892;18.914;2023-12-29T15:11:36;8.95;;;5.53;;
82034;SDS011;71599;49.892;18.914;2023-12-29T15:16:38;10.88;;;6.07;;
82034;SDS011;71599;49.892;18.914;2023-12-29T15:21:40;12.60;;;5.70;;
82034;SDS011;71599;49.892;18.914;2023-12-29T15:26:41;10.55;;;6.18;;
82034;SDS011;71599;49.892;18.914;2023-12-29T15:31:43;11.63;;;6.18;;
82034;SDS011;71599;49.892;18.914;2023-12-29T15:36:45;25.20;;;10.18;;
82034;SDS011;71599;49.892;18.914;2023-12-29T15:41:46;11.23;;;5.45;;
82034;SDS011;71599;49.892;18.914;2023-12-29T15:46:48;22.30;;;11.52;;
82034;SDS011;71599;49.892;18.914;2023-12-29T15:51:49;8.95;;;5.00;;
82034;SDS011;71599;49.892;18.914;2023-12-29T15:56:50;12.00;;;5.90;;
82034;SDS011;71599;49.892;18.914;2023-12-29T16:01:52;14.35;;;7.63;;
82034;SDS011;71599;49.892;18.914;2023-12-29T16:06:54;12.90;;;6.72;;
82034;SDS011;71599;49.892;18.914;2023-12-29T16:16:57;9.32;;;5.32;;
82034;SDS011;71599;49.892;18.914;2023-12-29T16:21:58;12.82;;;5.57;;
82034;SDS011;71599;49.892;18.914;2023-12-29T16:27:00;8.98;;;4.68;;
82034;SDS011;71599;49.892;18.914;2023-12-29T16:32:02;7.13;;;4.78;;
82034;SDS011;71599;49.892;18.914;2023-12-29T16:37:04;8.70;;;4.70;;
82034;SDS011;71599;49.892;18.914;2023-12-29T16:42:05;10.23;;;5.30;;
82034;SDS011;71599;49.892;18.914;2023-12-29T16:47:07;7.90;;;5.25;;
82034;SDS011;71599;49.892;18.914;2023-12-29T16:52:08;8.60;;;5.32;;
82034;SDS011;71599;49.892;18.914;2023-12-29T16:57:10;7.95;;;5.03;;
82034;SDS011;71599;49.892;18.914;2023-12-29T17:02:12;6.25;;;3.58;;
82034;SDS011;71599;49.892;18.914;2023-12-29T17:07:13;6.13;;;3.63;;
82034;SDS011;71599;49.892;18.914;2023-12-29T17:12:15;7.03;;;3.85;;
82034;SDS011;71599;49.892;18.914;2023-12-29T17:17:17;9.45;;;5.15;;
82034;SDS011;71599;49.892;18.914;2023-12-29T17:22:18;7.75;;;4.57;;
82034;SDS011;71599;49.892;18.914;2023-12-29T17:27:20;10.57;;;6.47;;
82034;SDS011;71599;49.892;18.914;2023-12-29T17:32:22;17.00;;;8.93;;
82034;SDS011;71599;49.892;18.914;2023-12-29T17:37:24;13.75;;;6.45;;
82034;SDS011;71599;49.892;18.914;2023-12-29T17:42:25;7.80;;;4.68;;
82034;SDS011;71599;49.892;18.914;2023-12-29T17:47:27;7.00;;;5.30;;
82034;SDS011;71599;49.892;18.914;2023-12-29T17:52:28;8.93;;;5.00;;
82034;SDS011;71599;49.892;18.914;2023-12-29T17:57:29;6.57;;;4.53;;
82034;SDS011;71599;49.892;18.914;2023-12-29T18:07:32;8.85;;;3.72;;
82034;SDS011;71599;49.892;18.914;2023-12-29T18:12:33;6.75;;;3.72;;
82034;SDS011;71599;49.892;18.914;2023-12-29T18:17:35;7.88;;;3.92;;
82034;SDS011;71599;49.892;18.914;2023-12-29T18:22:37;11.00;;;5.50;;
82034;SDS011;71599;49.892;18.914;2023-12-29T18:27:38;6.13;;;4.28;;
82034;SDS011;71599;49.892;18.914;2023-12-29T18:32:40;14.80;;;6.70;;
82034;SDS011;71599;49.892;18.914;2023-12-29T18:37:43;24.27;;;10.05;;
82034;SDS011;71599;49.892;18.914;2023-12-29T18:42:44;22.20;;;10.80;;
82034;SDS011;71599;49.892;18.914;2023-12-29T18:47:47;27.23;;;12.30;;
82034;SDS011;71599;49.892;18.914;2023-12-29T18:52:48;11.93;;;5.60;;
82034;SDS011;71599;49.892;18.914;2023-12-29T18:57:49;12.50;;;6.57;;
82034;SDS011;71599;49.892;18.914;2023-12-29T19:02:51;5.97;;;3.65;;
82034;SDS011;71599;49.892;18.914;2023-12-29T19:07:52;5.85;;;3.10;;
82034;SDS011;71599;49.892;18.914;2023-12-29T19:12:54;14.98;;;7.25;;
82034;SDS011;71599;49.892;18.914;2023-12-29T19:17:56;14.30;;;6.80;;
82034;SDS011;71599;49.892;18.914;2023-12-29T19:22:57;18.65;;;8.60;;
82034;SDS011;71599;49.892;18.914;2023-12-29T19:28:00;13.77;;;6.35;;
82034;SDS011;71599;49.892;18.914;2023-12-29T19:33:03;14.75;;;6.38;;
82034;SDS011;71599;49.892;18.914;2023-12-29T19:38:05;18.42;;;8.60;;
82034;SDS011;71599;49.892;18.914;2023-12-29T19:43:06;11.38;;;5.68;;
82034;SDS011;71599;49.892;18.914;2023-12-29T19:48:10;10.00;;;4.88;;
82034;SDS011;71599;49.892;18.914;2023-12-29T19:53:11;6.40;;;3.85;;
82034;SDS011;71599;49.892;18.914;2023-12-29T19:58:12;9.27;;;4.88;;
82034;SDS011;71599;49.892;18.914;2023-12-29T20:03:14;17.63;;;7.35;;
82034;SDS011;71599;49.892;18.914;2023-12-29T20:08:15;24.00;;;14.27;;
82034;SDS011;71599;49.892;18.914;2023-12-29T20:13:17;31.77;;;15.02;;
82034;SDS011;71599;49.892;18.914;2023-12-29T20:18:19;19.20;;;8.30;;
82034;SDS011;71599;49.892;18.914;2023-12-29T20:23:20;16.75;;;7.20;;
82034;SDS011;71599;49.892;18.914;2023-12-29T20:28:21;13.55;;;6.80;;
82034;SDS011;71599;49.892;18.914;2023-12-29T20:33:24;12.10;;;6.38;;
82034;SDS011;71599;49.892;18.914;2023-12-29T20:38:25;10.90;;;5.55;;
82034;SDS011;71599;49.892;18.914;2023-12-29T20:43:26;5.95;;;3.28;;
82034;SDS011;71599;49.892;18.914;2023-12-29T20:48:28;5.43;;;3.92;;
82034;SDS011;71599;49.892;18.914;2023-12-29T20:53:29;6.68;;;3.58;;
82034;SDS011;71599;49.892;18.914;2023-12-29T21:03:32;5.25;;;2.60;;
82034;SDS011;71599;49.892;18.914;2023-12-29T21:08:34;8.35;;;3.03;;
82034;SDS011;71599;49.892;18.914;2023-12-29T21:18:37;4.03;;;2.28;;
82034;SDS011;71599;49.892;18.914;2023-12-29T21:23:38;3.75;;;2.35;;
82034;SDS011;71599;49.892;18.914;2023-12-29T21:33:41;7.70;;;3.75;;
82034;SDS011;71599;49.892;18.914;2023-12-29T21:38:42;6.82;;;2.78;;
82034;SDS011;71599;49.892;18.914;2023-12-29T21:43:44;5.85;;;2.53;;
82034;SDS011;71599;49.892;18.914;2023-12-29T21:48:47;10.65;;;3.80;;
82034;SDS011;71599;49.892;18.914;2023-12-29T21:53:48;7.43;;;3.00;;
82034;SDS011;71599;49.892;18.914;2023-12-29T21:58:50;4.93;;;2.97;;
82034;SDS011;71599;49.892;18.914;2023-12-29T22:03:52;3.70;;;2.55;;
82034;SDS011;71599;49.892;18.914;2023-12-29T22:08:54;5.70;;;2.50;;
82034;SDS011;71599;49.892;18.914;2023-12-29T22:13:55;6.00;;;3.08;;
82034;SDS011;71599;49.892;18.914;2023-12-29T22:18:58;10.85;;;6.25;;
82034;SDS011;71599;49.892;18.914;2023-12-29T22:23:59;5.05;;;3.20;;
82034;SDS011;71599;49.892;18.914;2023-12-29T22:29:00;6.38;;;4.00;;
82034;SDS011;71599;49.892;18.914;2023-12-29T22:39:04;5.38;;;3.13;;
82034;SDS011;71599;49.892;18.914;2023-12-29T22:44:05;6.68;;;4.05;;
82034;SDS011;71599;49.892;18.914;2023-12-29T22:49:07;8.95;;;3.20;;
82034;SDS011;71599;49.892;18.914;2023-12-29T22:54:08;5.68;;;3.05;;
82034;SDS011;71599;49.892;18.914;2023-12-29T23:04:12;6.82;;;3.83;;
82034;SDS011;71599;49.892;18.914;2023-12-29T23:09:13;8.60;;;4.18;;
82034;SDS011;71599;49.892;18.914;2023-12-29T23:19:17;6.90;;;4.05;;
82034;SDS011;71599;49.892;18.914;2023-12-29T23:24:18;7.70;;;3.50;;
82034;SDS011;71599;49.892;18.914;2023-12-29T23:29:19;8.32;;;4.13;;
82034;SDS011;71599;49.892;18.914;2023-12-29T23:34:21;6.80;;;3.40;;
82034;SDS011;71599;49.892;18.914;2023-12-29T23:39:22;9.32;;;3.92;;
82034;SDS011;71599;49.892;18.914;2023-12-29T23:49:26;4.30;;;2.38;;
82034;SDS011;71599;49.892;18.914;2023-12-29T23:54:28;3.70;;;1.77;;
82034;SDS011;71599;49.892;18.914;2023-12-29T23:59:28;1.45;;;1.17;;
